Weather reports worldwide

Advertisment
Fichtelberg, Germany (10578): temperature & dewpoint: 20.09.2020 12:00:00 - 26.09.2020 12:00:00 (CEST)Fichtelberg, Germany (10578): temperature 5cm & temperature -5cm: 20.09.2020 12:00:00 - 26.09.2020 12:00:00 (CEST)Fichtelberg, Germany (10578): temperature -20cm & temperature -100cm: 20.09.2020 12:00:00 - 26.09.2020 12:00:00 (CEST)Fichtelberg, Germany (10578): wind speed & gusts: 20.09.2020 12:00:00 - 26.09.2020 12:00:00 (CEST)Fichtelberg, Germany (10578): wind direction: 20.09.2020 12:00:00 - 26.09.2020 12:00:00 (CEST)Fichtelberg, Germany (10578): visibility: 20.09.2020 12:00:00 - 26.09.2020 12:00:00 (CEST)Fichtelberg, Germany (10578): sunshine duration: 20.09.2020 12:00:00 - 26.09.2020 12:00:00 (CEST)
Date & Time tt [°C] td [°C] tt 5cm [°C] tt -5cm [°C] tt -20cm [°C] tt -100cm [°C] ff [km/h] ff [kn] fx [km/h] fx [kn] dd vv [km] sd [min]
26.09.2020 12:00:00 1,2 0,8 1,4 3,3 7,5 12,1 44 24 58 32 NW 0,2 0
26.09.2020 11:00:00 1,3 0,9 1,4 3,1 7,7 12,1 43 23 60 32 NW 0,2 0
26.09.2020 10:00:00 0,9 0,5 1,0 3,1 8,0 12,1 44 24 56 30 NW 0,2 0
26.09.2020 09:00:00 1,2 0,7 1,2 3,0 8,2 12,1 41 22 58 31 NW 0,2 0
26.09.2020 08:00:00 0,8 0,4 0,8 2,8 8,5 12,1 39 21 52 28 WNW 0,2 0
26.09.2020 07:00:00 0,5 0,0 0,3 2,9 8,8 12,1 37 20 46 25 WNW 0,2 0
26.09.2020 06:00:00 0,5 0,0 0,1 3,2 9,2 12,1 35 19 42 23 WNW 0,2 0
26.09.2020 05:00:00 0,2 -0,3 0,0 3,4 9,5 12,2 35 19 43 23 WNW 0,2 0
26.09.2020 04:00:00 0,4 -0,1 0,1 4,5 9,7 12,2 33 18 42 23 WNW 0,2 0
26.09.2020 03:00:00 1,2 0,7 1,3 5,3 9,9 12,2 31 17 37 20 WNW 0,2 0
26.09.2020 02:00:00 1,2 0,6 1,5 5,6 10,2 12,2 28 15 33 18 WNW 2,8 0
26.09.2020 01:00:00 1,0 0,5 1,4 5,9 10,4 12,2 24 13 30 16 WNW 0,5 0
26.09.2020 00:00:00 1,4 0,9 1,9 6,3 10,6 12,2 24 13 41 22 W 0,3 0
25.09.2020 23:00:00 1,7 1,2 2,2 6,6 10,8 12,2 35 19 47 26 WNW 0,2 0
25.09.2020 22:00:00 2,0 1,5 2,5 7,0 11,0 12,2 37 20 49 26 WNW 16 0
25.09.2020 21:00:00 2,3 1,7 2,8 7,6 11,1 12,2 40 22 47 26 W 1,1 0
25.09.2020 20:00:00 3,0 2,4 3,5 8,2 11,3 12,2 35 19 43 23 W 0,4 0
25.09.2020 19:00:00 3,4 2,6 3,7 8,9 11,3 12,2 33 18 48 26 W 33 0
25.09.2020 18:00:00 4,2 3,5 4,9 9,7 11,3 12,2 35 19 42 23 W 22 0
25.09.2020 17:00:00 4,6 3,2 5,0 10,6 11,3 12,2 32 17 43 23 WNW 75 0
25.09.2020 16:00:00 5,4 4,4 6,6 11,0 11,2 12,2 38 20 46 25 WNW 75 1
25.09.2020 15:00:00 6,8 6,3 10,1 10,6 11,2 12,2 37 20 49 26 W 57 13
25.09.2020 14:00:00 6,1 5,6 7,0 10,1 11,2 12,2 35 19 49 26 W 0,1 0
25.09.2020 13:00:00 6,9 6,4 7,5 9,9 11,2 12,2 29 16 40 22 W 0,1 0
25.09.2020 12:00:00 7,5 7,1 8,1 10,0 11,2 12,2 22 12 49 26 W - 0
25.09.2020 11:00:00 7,8 7,3 8,3 9,7 11,3 12,2 32 18 47 25 W 0,5 0
25.09.2020 10:00:00 7,8 7,4 8,1 9,5 11,4 12,2 32 17 43 23 W 0,2 0
25.09.2020 09:00:00 7,6 7,2 7,9 9,4 11,4 12,2 34 19 43 23 W 0,2 0
25.09.2020 08:00:00 7,6 7,2 7,8 9,5 11,5 12,2 34 18 45 24 W 0,5 0
25.09.2020 07:00:00 8,1 7,7 8,2 9,6 11,6 12,2 34 18 46 25 W 0,2 0
25.09.2020 06:00:00 8,1 7,7 8,2 9,7 11,7 12,2 36 20 49 26 W 0,2 0
25.09.2020 05:00:00 8,4 7,9 8,4 9,9 11,8 12,2 29 15 37 20 W 0,2 0
25.09.2020 04:00:00 9,0 8,6 9,1 10,0 11,9 12,3 20 11 37 20 W 0,1 0
25.09.2020 03:00:00 9,9 9,1 9,6 9,9 12,0 12,3 29 15 58 31 S 8 0
25.09.2020 02:00:00 9,5 8,5 9,1 9,9 12,1 12,3 41 22 56 30 SE 16 0
25.09.2020 01:00:00 10,2 8,2 9,6 9,9 12,3 12,3 40 22 61 33 SE 47 0
25.09.2020 00:00:00 10,1 8,2 9,3 9,8 12,4 12,3 42 23 53 28 SE 45 0
24.09.2020 23:00:00 10,1 7,9 9,0 10,0 12,6 12,3 34 18 46 25 SE 54 0
24.09.2020 22:00:00 10,5 7,7 9,2 10,4 12,7 12,3 30 16 38 21 S 60 0
24.09.2020 21:00:00 10,2 7,6 9,2 10,9 12,8 12,3 29 15 32 17 S 57 0
24.09.2020 20:00:00 10,3 7,8 9,4 11,4 12,9 12,3 28 15 34 18 SSW 68 0
24.09.2020 19:00:00 10,6 7,2 9,9 12,3 12,8 12,3 29 15 37 20 SW 73 0
24.09.2020 18:00:00 11,3 7,0 11,0 13,4 12,7 12,3 29 16 35 19 SSW 75 5
24.09.2020 17:00:00 12,5 8,3 13,3 13,9 12,5 12,3 24 13 35 19 SW 75 30
24.09.2020 16:00:00 12,1 9,4 12,7 14,0 12,4 12,3 26 14 45 24 SW 42 23
24.09.2020 15:00:00 12,7 9,2 13,0 13,7 12,2 12,3 30 16 45 25 WSW 65 23
24.09.2020 14:00:00 12,0 9,9 13,2 12,9 12,1 12,3 30 16 43 23 W 75 3
24.09.2020 13:00:00 10,8 9,8 11,5 12,4 12,0 12,3 34 18 58 32 WSW 13 0
24.09.2020 12:00:00 10,6 10,2 11,1 11,8 11,9 12,3 36 20 57 31 WSW 0,2 0
24.09.2020 11:00:00 10,8 10,3 11,6 11,6 11,9 12,3 38 21 58 32 WSW 0,5 0
24.09.2020 10:00:00 10,2 9,7 10,7 10,7 12,0 12,3 40 22 58 32 WSW 0,2 7
24.09.2020 09:00:00 9,9 9,2 9,8 9,8 12,1 12,3 47 25 62 33 WSW 2,0 39
24.09.2020 08:00:00 9,5 8,2 8,7 9,6 12,2 12,3 51 28 63 34 WSW 19 13
24.09.2020 07:00:00 9,4 8,9 9,1 9,5 12,3 12,3 49 26 64 34 WSW 0,4 0
24.09.2020 06:00:00 9,2 8,6 8,7 9,6 12,5 12,3 51 27 61 33 SW 3,7 0
24.09.2020 05:00:00 9,4 8,8 8,8 9,7 12,7 12,3 48 26 58 32 SW 2,4 0
24.09.2020 04:00:00 9,6 8,5 8,8 9,6 12,9 12,3 45 24 55 30 WSW 8 0
24.09.2020 03:00:00 9,6 7,4 8,5 9,8 13,1 12,3 42 23 52 28 SW 24 0
24.09.2020 02:00:00 9,7 5,6 8,1 10,1 13,3 12,3 44 24 50 27 WSW 44 0
24.09.2020 01:00:00 9,7 7,0 8,3 10,7 13,4 12,3 39 21 46 25 WSW 30 0
24.09.2020 00:00:00 9,9 8,2 8,8 11,3 13,6 12,3 35 19 44 24 WSW 20 0
23.09.2020 23:00:00 11,0 10,2 10,2 11,8 13,7 12,3 31 17 40 22 WSW 5 0
23.09.2020 22:00:00 11,0 10,4 10,4 12,4 13,8 12,3 29 16 39 21 W 4,0 0
23.09.2020 21:00:00 11,4 10,6 11,0 12,8 13,9 12,3 29 16 33 18 WSW 12 0
23.09.2020 20:00:00 11,3 10,4 11,1 13,3 13,9 12,3 28 15 32 17 W 18 0
23.09.2020 19:00:00 11,9 10,7 11,7 13,9 13,9 12,3 21 11 26 14 WSW 30 0
23.09.2020 18:00:00 12,4 11,2 12,4 14,3 13,9 12,3 21 12 25 13 W 43 3
23.09.2020 17:00:00 11,8 10,6 11,6 13,8 13,9 12,3 13 7 21 12 W 1,0 0
23.09.2020 16:00:00 12,1 11,3 12,9 13,5 14,0 12,2 12 6 17 9 WNW 23 0
23.09.2020 15:00:00 12,0 9,7 11,4 13,5 14,0 12,2 10 5 23 12 N 9 0
23.09.2020 14:00:00 11,3 8,2 10,6 14,7 13,9 12,2 14 7 34 18 NW 53 0
23.09.2020 13:00:00 15,6 10,6 17,3 16,4 13,7 12,2 14 8 20 11 E 38 4
23.09.2020 12:00:00 16,6 11,0 17,4 16,3 13,5 12,2 9 5 18 10 W 39 10
23.09.2020 11:00:00 16,6 11,5 18,7 15,4 13,4 12,2 10 5 14 7 W 32 34
23.09.2020 10:00:00 15,8 11,0 17,1 13,6 13,5 12,2 6 3 13 7 W 31 12
23.09.2020 09:00:00 14,2 11,0 14,9 12,1 13,6 12,2 11 6 13 7 W 29 14
23.09.2020 08:00:00 12,4 10,1 10,9 11,3 13,7 12,2 11 6 18 10 W 25 19
23.09.2020 07:00:00 12,1 10,0 9,1 11,5 13,9 12,2 16 9 23 13 W 23 0
23.09.2020 06:00:00 12,2 9,6 9,6 11,8 14,0 12,3 23 12 25 13 W 29 0
23.09.2020 05:00:00 12,9 10,1 11,2 12,1 14,1 12,3 22 12 24 13 WSW 26 0
23.09.2020 04:00:00 13,1 10,7 11,5 12,3 14,3 12,3 24 13 26 14 WSW 22 0
23.09.2020 03:00:00 13,1 10,5 11,5 12,5 14,4 12,3 22 12 23 12 SW 28 0
23.09.2020 02:00:00 13,4 10,2 11,6 12,8 14,6 12,3 16 9 21 11 S 28 0
23.09.2020 01:00:00 13,5 10,3 11,5 13,0 14,7 12,3 18 10 22 12 S 29 0
23.09.2020 00:00:00 13,9 10,5 12,1 13,3 14,9 12,3 17 9 25 13 S 29 0
22.09.2020 23:00:00 13,8 10,1 11,7 13,7 15,0 12,3 19 10 27 15 S 31 0
22.09.2020 22:00:00 13,7 9,8 11,6 14,3 15,2 12,3 20 11 29 16 S 42 0
22.09.2020 21:00:00 13,6 9,4 11,7 15,1 15,2 12,3 11 6 23 13 SE 37 0
22.09.2020 20:00:00 13,8 9,1 11,9 16,2 15,1 12,3 19 10 24 13 SE 40 0
22.09.2020 19:00:00 14,6 9,3 12,7 17,8 14,9 12,3 15 8 23 12 ESE 38 51
22.09.2020 18:00:00 16,8 9,0 17,5 19,6 14,6 12,3 15 8 24 13 SSE 48 60
22.09.2020 17:00:00 18,1 9,2 21,8 20,1 14,1 12,3 16 9 26 14 S 62 60
22.09.2020 16:00:00 18,4 9,0 23,0 20,1 13,7 12,3 16 8 29 15 S 55 60
22.09.2020 15:00:00 18,4 7,0 23,7 19,7 13,2 12,3 19 11 27 15 SSW 57 60
22.09.2020 14:00:00 18,4 8,7 23,5 18,9 12,8 12,3 13 7 23 12 SW 75 60
22.09.2020 13:00:00 18,0 9,9 23,0 17,6 12,5 12,3 16 8 22 12 SW 51 60
22.09.2020 12:00:00 17,8 7,9 21,0 15,6 12,3 12,3 6 4 11 6 WSW 46 60
22.09.2020 11:00:00 16,4 8,1 18,4 13,5 12,2 12,3 5 3 15 8 W 67 60
22.09.2020 10:00:00 15,3 8,7 15,7 11,4 12,3 12,3 9 5 16 9 W 68 60
22.09.2020 09:00:00 12,9 7,9 12,3 9,6 12,5 12,3 11 6 18 10 W 41 60
22.09.2020 08:00:00 11,0 7,2 7,6 9,1 12,6 12,3 14 8 16 9 W 56 39
22.09.2020 07:00:00 10,5 6,8 6,4 9,3 12,8 12,3 12 7 14 7 W 39 0
22.09.2020 06:00:00 10,5 6,1 7,1 9,7 13,0 12,3 12 7 19 11 W 60 0
22.09.2020 05:00:00 11,0 7,0 7,5 10,1 13,1 12,3 16 8 18 10 WSW 43 0
22.09.2020 04:00:00 11,5 6,7 9,0 10,4 13,3 12,3 15 8 21 11 WSW 52 0
22.09.2020 03:00:00 11,7 8,2 9,5 10,6 13,5 12,3 18 10 30 16 SSW 38 0
22.09.2020 02:00:00 11,8 7,9 9,7 10,8 13,7 12,3 29 16 32 17 SSW 42 0
22.09.2020 01:00:00 11,6 7,5 9,3 11,1 13,8 12,3 29 15 31 17 S 39 0
22.09.2020 00:00:00 11,7 7,5 8,9 11,6 14,0 12,3 21 11 35 19 S 37 0
21.09.2020 23:00:00 12,2 7,4 9,8 12,0 14,2 12,3 26 14 33 18 SSE 43 0
21.09.2020 22:00:00 12,0 7,0 9,7 12,6 14,3 12,3 24 13 31 17 SE 43 0
21.09.2020 21:00:00 11,8 7,4 9,5 13,4 14,3 12,3 20 11 22 12 SE 28 0
21.09.2020 20:00:00 11,8 7,4 9,6 14,5 14,3 12,3 19 10 23 12 SE 32 0
21.09.2020 19:00:00 12,2 7,3 10,7 16,1 14,1 12,3 21 11 22 12 SE 39 57
21.09.2020 18:00:00 13,7 7,6 14,9 17,9 13,8 12,3 16 9 27 14 SE 36 60
21.09.2020 17:00:00 14,8 7,9 19,3 18,6 13,4 12,3 18 10 25 13 ESE 44 60
21.09.2020 16:00:00 15,6 8,0 20,8 18,7 12,9 12,3 19 10 29 16 ESE 55 60
21.09.2020 15:00:00 16,0 7,9 21,8 18,2 12,5 12,3 20 11 27 15 ESE 43 60
21.09.2020 14:00:00 16,0 7,8 21,8 17,1 12,2 12,4 21 11 29 15 ESE 50 60
21.09.2020 13:00:00 15,6 8,2 21,0 15,6 11,9 12,4 22 12 34 19 ESE 71 60
21.09.2020 12:00:00 14,7 7,3 18,5 13,9 11,8 12,4 24 13 38 20 SE 55 60
21.09.2020 11:00:00 14,1 6,9 16,6 12,0 11,8 12,4 29 16 42 23 SE 56 60
21.09.2020 10:00:00 12,6 6,0 13,7 10,3 11,8 12,4 29 16 37 20 SE 46 60
21.09.2020 09:00:00 11,1 5,2 10,8 9,1 12,0 12,4 32 17 41 22 ESE 62 60
21.09.2020 08:00:00 9,7 4,5 8,3 8,7 12,1 12,4 32 17 42 23 ESE 54 37
21.09.2020 07:00:00 8,9 4,2 7,3 8,8 12,2 12,4 37 20 44 24 ESE 50 0
21.09.2020 06:00:00 9,0 4,3 7,3 9,0 12,4 12,4 35 19 43 23 ESE 56 0
21.09.2020 05:00:00 9,5 4,7 7,8 9,1 12,5 12,4 34 18 41 22 SE 54 0
21.09.2020 04:00:00 9,3 4,0 7,9 9,3 12,7 12,4 36 19 40 22 SE 63 0
21.09.2020 03:00:00 9,4 4,0 7,7 9,5 12,8 12,4 32 17 40 22 SE 63 0
21.09.2020 02:00:00 9,8 4,1 8,2 9,8 13,0 12,4 34 18 40 22 SE 54 0
21.09.2020 01:00:00 10,0 3,6 8,4 10,0 13,1 12,4 35 19 41 22 SE 63 0
21.09.2020 00:00:00 9,6 3,3 8,0 10,4 13,3 12,4 37 20 45 24 SE 60 0
20.09.2020 23:00:00 10,1 2,8 8,4 10,8 13,4 12,4 37 20 48 26 ESE 75 0
20.09.2020 22:00:00 10,8 2,6 9,1 11,4 13,5 12,4 39 21 47 25 ESE 75 0
20.09.2020 21:00:00 11,1 3,0 9,3 12,1 13,6 12,4 39 21 48 26 E 61 0
20.09.2020 20:00:00 11,4 2,6 9,8 13,0 13,6 12,4 39 21 46 25 ESE 74 6
20.09.2020 19:00:00 11,8 1,7 10,4 14,4 13,4 12,4 32 17 40 22 E 69 60
20.09.2020 18:00:00 13,2 1,0 13,8 15,9 13,1 12,4 31 17 39 21 E 73 60
20.09.2020 17:00:00 14,0 0,5 17,7 16,5 12,8 12,4 34 19 45 24 E 61 60
20.09.2020 16:00:00 14,5 0,5 18,8 16,5 12,5 12,4 34 19 48 26 ESE 69 60
20.09.2020 15:00:00 14,4 1,7 19,4 15,8 12,2 12,5 35 19 48 26 ESE 68 60
20.09.2020 14:00:00 13,9 2,2 18,9 15,0 11,9 12,5 38 20 53 29 ESE 49 60
20.09.2020 13:00:00 13,2 2,7 17,5 13,9 11,7 12,5 39 21 55 30 ESE 34 60
20.09.2020 12:00:00 12,6 2,6 15,9 12,4 11,6 12,5 37 20 59 32 ESE 19 60

tt = temperature
td = dewpoint
tt 5cm = temperature 5cm
tt -5cm = temperature -5cm
tt -20cm = temperature -20cm
tt -100cm = temperature -100cm
ff = wind speed
fx = gusts
dd = wind direction
vv = visibility
sd = sunshine duration

Next stations